KTYR/TYR METAR and TAF weather

Enter ICAO airport designator
Station Type Date Time Source
KTYR METAR 2021/05/10 23:53 UTC NOAA

KTYR 102353Z 05010KT 3SM BR OVC008 17/15 A2993 RMK AO2 SLP131 60000 T01720150 10211 20172 58014


Station Type Date Time Source
KTYR Decoded METAR 2021/05/10 23:53 UTC NOAA

TYLER POUNDS FIELDS, TX, United States (KTYR) 32-21N 095-24W 165M
May 10, 2021 - 07:53 PM EDT / 2021.05.10 2353 UTC
Wind: from the NE (050 degrees) at 12 MPH (10 KT):0
Visibility: 3 mile(s):0
Sky conditions: overcast
Weather: mist
Temperature: 63.0 F (17.2 C)
Dew Point: 59.0 F (15.0 C)
Relative Humidity: 86%
Pressure (altimeter): 29.93 in. Hg (1013 hPa)
Pressure tendency: 0.04 inches (1.4 hPa) lower than three hours ago
ob: KTYR 102353Z 05010KT 3SM BR OVC008 17/15 A2993 RMK AO2 SLP131 60000 T01720150 10211 20172 58014
cycle: 0

Station Type Date Time Source
KTYR TAF 2021/05/10 21:15 UTC NOAA

TAF
AMD KTYR 102113Z 1021/1118 05010KT 1SM BR VCSH OVC005
FM110000 05009KT P6SM OVC007
FM110300 06008KT P6SM VCTS OVC008CB
FM111100 06006KT P6SM OVC005
FM111500 06006KT P6SM VCTS OVC005CB

Example: see airport list